Time;durP1;ratioP1;P1;durP2;ratioP2;P2;SDS_P1;SDS_P2;PMS_P1;PMS_P2;Temp;Humidity;BMP_temperature;BMP_pressure;BME280_temperature;BME280_humidity;BME280_pressure;Samples;Min_cycle;Max_cycle;Signal;HPM_P1;HPM_P2
2022/09/25 00:03:04;;;;;;;16.10;14.83;;;15.30;99.90;;;;;;10367549;28;20622;-77
2022/09/25 00:08:09;;;;;;;18.33;16.77;;;15.20;99.90;;;;;;10369141;28;20248;-77
2022/09/25 00:13:12;;;;;;;22.00;19.70;;;15.20;99.90;;;;;;10370104;28;20205;-78
2022/09/25 00:18:15;;;;;;;17.67;16.23;;;15.20;99.90;;;;;;10372294;28;20226;-78
2022/09/25 00:23:18;;;;;;;19.07;17.47;;;15.20;99.90;;;;;;10371935;28;20549;-77
2022/09/25 00:28:20;;;;;;;19.33;17.63;;;15.20;99.90;;;;;;10375440;28;20229;-78
2022/09/25 00:33:22;;;;;;;18.90;17.30;;;15.20;99.90;;;;;;10373728;28;20576;-79
2022/09/25 00:38:26;;;;;;;20.87;18.97;;;15.20;99.90;;;;;;10375641;28;20216;-78
2022/09/25 00:43:38;;;;;;;21.27;19.40;;;15.20;99.90;;;;;;10374192;28;20281;-77
2022/09/25 00:48:48;;;;;;;20.50;18.60;;;15.20;99.90;;;;;;10375941;28;20360;-77
2022/09/25 00:53:52;;;;;;;19.07;17.33;;;15.20;99.90;;;;;;10375063;28;20536;-78
2022/09/25 00:58:54;;;;;;;20.70;18.90;;;15.20;99.90;;;;;;10371171;28;20252;-78
2022/09/25 01:03:56;;;;;;;27.30;23.80;;;15.20;99.90;;;;;;10370147;28;20569;-77
2022/09/25 01:09:00;;;;;;;21.40;19.40;;;15.20;99.90;;;;;;10372638;28;20230;-76
2022/09/25 01:14:05;;;;;;;28.47;25.57;;;15.20;99.90;;;;;;10373831;28;20193;-77
2022/09/25 01:19:22;;;;;;;19.20;17.60;;;15.20;99.90;;;;;;10372411;28;20222;-78
2022/09/25 01:24:40;;;;;;;16.87;15.47;;;15.10;99.90;;;;;;10379892;28;20241;-78
2022/09/25 01:29:52;;;;;;;17.90;16.33;;;15.10;99.90;;;;;;10376321;28;20302;-76
2022/09/25 01:35:01;;;;;;;19.20;17.50;;;15.20;99.90;;;;;;10377021;28;20195;-78
2022/09/25 01:40:10;;;;;;;20.03;18.20;;;15.20;99.90;;;;;;10373492;28;20226;-78
2022/09/25 01:45:18;;;;;;;18.37;16.70;;;15.20;99.90;;;;;;10373163;28;20218;-78
2022/09/25 01:50:26;;;;;;;17.90;16.47;;;15.30;99.90;;;;;;10373250;28;20223;-77
2022/09/25 01:55:34;;;;;;;18.13;16.63;;;15.30;99.90;;;;;;10371483;28;20191;-78
2022/09/25 02:00:41;;;;;;;19.20;17.50;;;15.30;99.90;;;;;;10375950;28;20214;-78
2022/09/25 02:05:47;;;;;;;19.83;18.13;;;15.40;99.90;;;;;;10375283;28;20265;-79
2022/09/25 02:10:54;;;;;;;18.03;16.53;;;15.40;99.90;;;;;;10376265;28;20233;-79
2022/09/25 02:16:02;;;;;;;19.70;18.00;;;15.40;99.90;;;;;;10375598;28;20226;-79
2022/09/25 02:21:12;;;;;;;19.87;18.00;;;15.40;99.90;;;;;;10374517;28;20705;-78
2022/09/25 02:26:21;;;;;;;18.43;16.90;;;15.40;99.90;;;;;;10376861;28;20282;-78
2022/09/25 02:31:29;;;;;;;18.57;16.90;;;15.40;99.90;;;;;;10376128;28;20244;-79
2022/09/25 02:36:32;;;;;;;18.53;17.03;;;15.40;99.90;;;;;;10375745;28;20261;-79
2022/09/25 02:41:50;;;;;;;21.47;19.67;;;15.40;99.90;;;;;;10375148;28;20301;-77
2022/09/25 02:47:12;;;;;;;19.00;17.40;;;15.40;99.90;;;;;;10373014;28;20214;-78
2022/09/25 02:52:19;;;;;;;17.10;15.67;;;15.40;99.90;;;;;;10375423;28;20210;-78
2022/09/25 02:57:31;;;;;;;19.20;17.47;;;15.40;99.90;;;;;;10375821;28;20278;-79
2022/09/25 03:02:37;;;;;;;19.90;18.10;;;15.50;99.90;;;;;;10374417;28;20233;-78
2022/09/25 03:12:56;;;;;;;16.77;15.43;;;15.50;99.90;;;;;;10377120;28;20568;-79
2022/09/25 03:17:59;;;;;;;15.83;14.53;;;15.50;99.90;;;;;;10376485;28;20242;-78
2022/09/25 03:23:01;;;;;;;17.80;16.30;;;15.50;99.90;;;;;;10355286;28;20194;-78
2022/09/25 03:28:04;;;;;;;16.10;14.70;;;15.40;99.90;;;;;;10371425;28;20224;-78
2022/09/25 03:33:08;;;;;;;14.90;13.70;;;15.50;99.90;;;;;;10378107;28;20195;-79
2022/09/25 03:38:11;;;;;;;16.03;14.77;;;15.50;99.90;;;;;;10380467;28;20218;-78
2022/09/25 03:43:14;;;;;;;18.10;16.40;;;15.50;99.90;;;;;;10369471;28;20210;-78
2022/09/25 03:48:17;;;;;;;19.23;17.50;;;15.50;99.90;;;;;;10370645;28;20305;-78
2022/09/25 03:53:19;;;;;;;17.40;16.10;;;15.50;99.90;;;;;;10372527;28;20206;-78
2022/09/25 03:58:21;;;;;;;19.07;17.47;;;15.50;99.90;;;;;;10386993;28;20273;-78
2022/09/25 04:03:27;;;;;;;19.07;17.47;;;15.50;99.90;;;;;;10377624;28;20217;-77
2022/09/25 04:08:30;;;;;;;17.97;16.43;;;15.40;99.90;;;;;;10376084;28;20222;-78
2022/09/25 04:13:35;;;;;;;18.80;17.03;;;15.40;99.90;;;;;;10377166;28;20264;-77
2022/09/25 04:18:41;;;;;;;18.60;17.10;;;15.40;99.90;;;;;;10374727;28;20682;-77
2022/09/25 04:24:46;;;;;;;17.20;15.93;;;15.40;99.90;;;;;;10374144;28;20199;-77
2022/09/25 04:29:07;;;;;;;17.00;15.70;;;15.40;99.90;;;;;;10372901;28;20246;-77
2022/09/25 04:34:10;;;;;;;17.67;16.20;;;15.40;99.90;;;;;;10373246;28;20218;-77
2022/09/25 04:39:18;;;;;;;20.00;18.40;;;15.40;99.90;;;;;;10374663;28;20238;-77
2022/09/25 04:44:20;;;;;;;20.33;18.63;;;15.40;99.90;;;;;;10374280;28;20202;-76
2022/09/25 04:49:24;;;;;;;21.47;19.50;;;15.40;99.90;;;;;;10372933;28;20655;-77
2022/09/25 04:54:26;;;;;;;23.00;20.93;;;15.40;99.90;;;;;;10371995;28;20205;-77
2022/09/25 04:59:28;;;;;;;22.87;20.87;;;15.40;99.90;;;;;;10370804;28;20230;-77
2022/09/25 05:04:32;;;;;;;23.17;21.17;;;15.40;99.90;;;;;;10371574;28;20682;-77
2022/09/25 05:09:34;;;;;;;22.33;20.23;;;15.40;99.90;;;;;;10371515;28;20274;-77
2022/09/25 05:14:39;;;;;;;21.57;19.67;;;15.40;99.90;;;;;;10372861;28;20202;-76
2022/09/25 05:19:43;;;;;;;23.90;21.90;;;15.40;99.90;;;;;;10370978;28;20372;-77
2022/09/25 05:24:45;;;;;;;22.20;20.20;;;15.30;99.90;;;;;;10372443;28;20241;-77
2022/09/25 05:29:48;;;;;;;22.57;20.53;;;15.30;99.90;;;;;;10372160;28;20222;-77
2022/09/25 05:34:51;;;;;;;21.60;19.80;;;15.40;99.90;;;;;;10372489;28;20285;-76
2022/09/25 05:39:53;;;;;;;21.30;19.47;;;15.40;99.90;;;;;;10371808;28;20241;-77
2022/09/25 05:44:55;;;;;;;19.13;17.63;;;15.40;99.90;;;;;;10370604;28;20289;-77
2022/09/25 05:49:58;;;;;;;19.43;17.87;;;15.40;99.90;;;;;;10371171;28;20245;-77
2022/09/25 05:55:02;;;;;;;16.40;15.03;;;15.40;99.90;;;;;;10371721;28;20205;-77
2022/09/25 06:00:06;;;;;;;16.57;15.27;;;15.40;99.90;;;;;;10369436;28;20301;-77
2022/09/25 06:05:15;;;;;;;16.37;15.07;;;15.40;99.90;;;;;;10367584;28;20206;-77
2022/09/25 06:10:17;;;;;;;15.80;14.60;;;15.40;99.90;;;;;;10372078;28;20743;-77
2022/09/25 06:15:19;;;;;;;15.33;14.20;;;15.40;99.90;;;;;;10374855;28;20202;-77
2022/09/25 06:20:23;;;;;;;15.40;14.10;;;15.50;99.90;;;;;;10370681;28;20233;-77
2022/09/25 06:25:27;;;;;;;27.80;23.93;;;15.50;99.90;;;;;;10371774;28;20214;-78
2022/09/25 06:30:33;;;;;;;26.23;23.67;;;15.50;99.90;;;;;;10377383;28;20674;-77
2022/09/25 06:35:40;;;;;;;22.70;19.37;;;15.60;99.90;;;;;;10375368;28;20201;-78
2022/09/25 06:40:43;;;;;;;19.17;17.17;;;15.60;99.90;;;;;;10369178;28;20218;-77
2022/09/25 06:45:46;;;;;;;17.63;16.33;;;15.70;99.90;;;;;;10372200;28;20210;-77
2022/09/25 06:50:52;;;;;;;19.30;17.47;;;15.70;99.90;;;;;;10369637;28;20635;-77
2022/09/25 06:55:58;;;;;;;17.67;15.77;;;15.80;99.90;;;;;;10368849;28;20202;-77
2022/09/25 07:01:00;;;;;;;17.37;16.07;;;15.80;99.90;;;;;;10368337;28;20229;-77
2022/09/25 07:06:06;;;;;;;15.50;14.20;;;15.90;99.90;;;;;;10369069;28;20226;-77
2022/09/25 07:11:10;;;;;;;17.63;16.17;;;16.00;99.90;;;;;;10367794;28;20665;-78
2022/09/25 07:16:13;;;;;;;17.47;15.97;;;16.00;99.90;;;;;;10369529;28;20198;-76
2022/09/25 07:21:19;;;;;;;16.17;14.77;;;16.10;99.90;;;;;;10369210;28;20218;-77
2022/09/25 07:26:23;;;;;;;17.93;16.40;;;16.10;99.90;;;;;;10369278;28;20212;-77
2022/09/25 07:31:26;;;;;;;14.77;13.57;;;16.20;99.90;;;;;;10370480;28;20301;-76
2022/09/25 07:36:30;;;;;;;17.47;15.87;;;16.20;99.90;;;;;;10378837;28;20191;-77
2022/09/25 07:41:33;;;;;;;17.00;15.60;;;16.20;99.90;;;;;;10377478;28;20260;-77
2022/09/25 07:46:35;;;;;;;14.90;13.60;;;16.20;99.90;;;;;;10378790;28;20253;-76
2022/09/25 07:51:39;;;;;;;16.80;15.37;;;16.30;99.90;;;;;;10377222;28;20214;-76
2022/09/25 07:56:41;;;;;;;15.37;14.07;;;16.40;99.90;;;;;;10375639;28;20199;-77
2022/09/25 08:01:43;;;;;;;12.73;11.70;;;16.40;99.90;;;;;;10375279;28;20221;-77
2022/09/25 08:06:46;;;;;;;13.03;11.93;;;16.50;99.90;;;;;;10374852;28;20293;-77
2022/09/25 08:11:48;;;;;;;13.50;12.40;;;16.50;99.90;;;;;;10376928;28;20215;-76
2022/09/25 08:16:51;;;;;;;13.10;12.10;;;16.50;99.90;;;;;;10374508;28;20226;-77
2022/09/25 08:21:54;;;;;;;12.63;11.63;;;16.50;99.90;;;;;;10374453;28;20264;-77
2022/09/25 08:26:56;;;;;;;13.30;12.20;;;16.50;99.90;;;;;;10374665;28;20261;-77
2022/09/25 08:31:58;;;;;;;13.30;12.10;;;16.50;99.90;;;;;;10374656;28;20722;-77
2022/09/25 08:37:02;;;;;;;11.43;10.50;;;16.60;99.90;;;;;;10375220;28;20244;-77
2022/09/25 08:42:05;;;;;;;10.63;9.83;;;16.80;99.90;;;;;;10375241;28;20223;-78
2022/09/25 08:52:34;;;;;;;10.80;10.10;;;17.00;99.90;;;;;;10372572;28;20222;-78
2022/09/25 08:57:42;;;;;;;10.67;9.87;;;17.10;99.90;;;;;;10376762;28;20682;-77
2022/09/25 09:02:48;;;;;;;10.60;9.90;;;17.20;99.90;;;;;;10375976;28;20214;-78
2022/09/25 09:07:56;;;;;;;10.90;10.10;;;17.30;99.90;;;;;;10374041;28;20702;-78
2022/09/25 09:13:05;;;;;;;11.50;10.60;;;17.40;99.90;;;;;;10374606;28;20190;-78
2022/09/25 09:18:18;;;;;;;11.17;10.37;;;17.50;99.90;;;;;;10376699;28;20232;-80
2022/09/25 09:23:23;;;;;;;10.43;9.70;;;17.50;99.90;;;;;;10365929;28;20191;-78
2022/09/25 09:28:56;;;;;;;9.80;8.90;;;17.40;99.90;;;;;;10401161;28;20316;-77
2022/09/25 09:34:08;;;;;;;9.63;9.00;;;17.50;99.90;;;;;;10372560;28;20574;-78
2022/09/25 09:39:20;;;;;;;10.93;10.03;;;17.60;99.90;;;;;;10371863;28;20593;-78
2022/09/25 09:44:36;;;;;;;9.93;9.33;;;17.80;99.90;;;;;;10373227;28;20455;-77
2022/09/25 09:49:45;;;;;;;9.77;9.17;;;17.90;99.90;;;;;;10377844;28;20247;-80
2022/09/25 09:54:53;;;;;;;9.90;9.00;;;18.00;99.90;;;;;;10373557;28;20702;-80
2022/09/25 09:59:58;;;;;;;10.80;10.00;;;17.90;99.90;;;;;;10373959;28;20219;-78
2022/09/25 10:05:04;;;;;;;10.77;9.80;;;17.80;99.90;;;;;;10374143;28;20213;-78
2022/09/25 10:10:13;;;;;;;9.43;8.73;;;17.70;99.90;;;;;;10373759;28;20222;-79
2022/09/25 10:15:29;;;;;;;9.83;9.23;;;17.70;99.90;;;;;;10373839;28;20203;-80
2022/09/25 10:20:40;;;;;;;10.30;9.40;;;17.60;99.90;;;;;;10378767;28;20308;-77
2022/09/25 10:25:43;;;;;;;10.60;9.70;;;17.70;99.90;;;;;;10374313;28;20191;-77
2022/09/25 10:30:46;;;;;;;10.83;10.00;;;17.90;99.90;;;;;;10372278;28;20669;-76
2022/09/25 10:35:53;;;;;;;10.13;9.27;;;18.20;99.90;;;;;;10370183;28;20225;-78
2022/09/25 10:41:04;;;;;;;9.80;9.10;;;18.40;99.90;;;;;;10374943;28;20202;-78
2022/09/25 10:46:12;;;;;;;10.60;9.80;;;18.40;99.90;;;;;;10376756;28;20285;-79
2022/09/25 10:51:16;;;;;;;10.37;9.50;;;18.30;99.90;;;;;;10377103;28;20215;-79
2022/09/25 10:56:25;;;;;;;11.17;10.37;;;18.10;99.90;;;;;;10377264;28;20207;-79
2022/09/25 11:01:33;;;;;;;11.03;10.23;;;17.90;99.90;;;;;;10377661;28;20221;-79
2022/09/25 11:06:37;;;;;;;13.33;12.20;;;17.60;99.90;;;;;;10371123;28;20217;-79
2022/09/25 11:11:41;;;;;;;13.97;12.77;;;17.40;99.90;;;;;;10376124;28;20226;-79
2022/09/25 11:16:51;;;;;;;14.77;13.37;;;17.30;99.90;;;;;;10375679;28;20194;-79
2022/09/25 11:22:03;;;;;;;15.33;14.23;;;17.10;99.90;;;;;;10375757;28;20230;-80
2022/09/25 11:27:14;;;;;;;16.70;15.30;;;17.00;99.90;;;;;;10355080;28;20215;-79
2022/09/25 11:32:23;;;;;;;18.60;17.10;;;17.00;99.90;;;;;;10356083;28;20587;-78
2022/09/25 11:37:31;;;;;;;19.47;17.67;;;16.90;99.90;;;;;;10373193;28;20175;-77
2022/09/25 11:42:41;;;;;;;22.00;19.80;;;16.90;99.90;;;;;;10370318;28;20313;-78
2022/09/25 11:47:52;;;;;;;19.23;17.53;;;16.90;99.90;;;;;;10372124;28;20289;-78
2022/09/25 11:53:04;;;;;;;18.27;16.50;;;17.00;99.90;;;;;;10378400;28;20257;-78
2022/09/25 11:58:20;;;;;;;19.10;17.30;;;17.10;99.90;;;;;;10372405;28;20285;-79
2022/09/25 12:03:39;;;;;;;17.73;16.17;;;17.10;99.90;;;;;;10370029;28;20261;-79
2022/09/25 12:08:53;;;;;;;20.43;18.33;;;17.10;99.90;;;;;;10370778;28;20272;-77
2022/09/25 12:14:04;;;;;;;17.23;15.73;;;17.10;99.90;;;;;;10376279;28;20205;-79
2022/09/25 12:19:18;;;;;;;18.33;16.73;;;17.20;99.90;;;;;;10378509;28;20233;-79
2022/09/25 12:24:32;;;;;;;18.70;17.10;;;17.20;99.90;;;;;;10407185;28;20256;-80
2022/09/25 12:30:05;;;;;;;20.23;18.33;;;17.30;99.90;;;;;;10380374;28;20230;-80
2022/09/25 12:35:25;;;;;;;20.80;18.83;;;17.50;99.90;;;;;;10380823;28;20210;-79
2022/09/25 12:40:32;;;;;;;18.03;16.33;;;17.60;99.90;;;;;;10377685;28;20276;-79
2022/09/25 12:45:43;;;;;;;18.70;17.00;;;17.70;99.90;;;;;;10378231;28;20309;-79
2022/09/25 12:50:52;;;;;;;20.57;18.47;;;17.80;99.90;;;;;;10376256;28;20281;-79
2022/09/25 12:55:59;;;;;;;17.87;16.33;;;17.80;99.90;;;;;;10379331;28;20229;-80
2022/09/25 13:01:07;;;;;;;17.00;15.50;;;17.70;99.90;;;;;;10382200;28;20322;-80
2022/09/25 13:06:14;;;;;;;17.17;15.40;;;17.90;99.90;;;;;;10379636;28;20195;-80
2022/09/25 13:11:24;;;;;;;16.07;14.57;;;18.10;99.90;;;;;;10378531;28;20226;-78
2022/09/25 13:16:28;;;;;;;15.00;13.70;;;18.00;99.90;;;;;;10376953;28;20195;-79
2022/09/25 13:21:34;;;;;;;15.00;13.70;;;17.90;99.90;;;;;;10377819;28;20215;-80
2022/09/25 13:26:44;;;;;;;14.17;13.00;;;18.00;99.90;;;;;;10379384;28;20201;-79
2022/09/25 13:31:48;;;;;;;13.03;11.83;;;18.10;99.90;;;;;;10381899;28;20222;-79
2022/09/25 13:36:54;;;;;;;11.77;10.87;;;18.10;99.90;;;;;;10376785;28;20230;-79
2022/09/25 13:41:59;;;;;;;12.50;11.40;;;18.00;99.90;;;;;;10378996;28;20269;-79
2022/09/25 13:47:36;;;;;;;12.73;11.73;;;18.00;99.90;;;;;;10377276;28;20635;-79
2022/09/25 13:58:31;;;;;;;12.23;11.13;;;17.80;99.90;;;;;;10529664;28;20528;-78
2022/09/25 14:03:38;;;;;;;13.20;11.97;;;17.80;99.90;;;;;;10526810;28;20196;-81
2022/09/25 14:08:42;;;;;;;13.57;12.17;;;17.80;99.90;;;;;;10529651;28;20258;-78
2022/09/25 14:13:54;;;;;;;12.37;11.27;;;17.90;99.90;;;;;;10527560;28;20196;-81
2022/09/25 14:18:57;;;;;;;13.10;11.90;;;17.90;99.90;;;;;;10516761;28;20274;-80
2022/09/25 14:24:21;;;;;;;12.63;11.43;;;17.80;99.90;;;;;;10531400;28;20196;-80
2022/09/25 14:29:26;;;;;;;12.47;11.37;;;17.70;99.90;;;;;;10538956;28;20230;-80
2022/09/25 14:34:47;;;;;;;11.03;9.77;;;17.60;99.90;;;;;;10533214;28;20204;-80
2022/09/25 14:39:57;;;;;;;11.20;10.30;;;17.60;99.90;;;;;;10532701;28;20250;-80
2022/09/25 14:45:26;;;;;;;12.50;11.50;;;17.50;99.90;;;;;;10531334;28;20206;-80
2022/09/25 14:50:31;;;;;;;13.00;10.63;;;17.50;99.90;;;;;;10488826;28;20336;-79
2022/09/25 14:55:36;;;;;;;12.40;11.30;;;17.50;99.90;;;;;;10529912;28;20255;-79
2022/09/25 15:00:46;;;;;;;11.47;10.47;;;17.60;99.90;;;;;;10519008;28;20282;-80
2022/09/25 15:05:49;;;;;;;10.07;9.23;;;17.70;99.90;;;;;;10531181;28;20192;-80
2022/09/25 15:11:02;;;;;;;8.90;8.20;;;17.80;99.90;;;;;;10498254;28;20326;-80
2022/09/25 15:21:31;;;;;;;10.20;9.37;;;17.50;99.90;;;;;;10502827;28;20859;-80
2022/09/25 15:26:38;;;;;;;10.20;9.40;;;17.40;99.90;;;;;;10499420;28;20720;-80
2022/09/25 15:31:49;;;;;;;9.80;9.10;;;17.30;99.90;;;;;;10500936;28;20209;-80
2022/09/25 15:36:52;;;;;;;10.57;9.77;;;17.20;99.90;;;;;;10499629;28;20296;-80
2022/09/25 15:41:54;;;;;;;10.10;9.40;;;17.20;99.90;;;;;;10500457;28;20220;-80
2022/09/25 15:47:00;;;;;;;10.70;9.70;;;17.10;99.90;;;;;;10499521;28;20192;-79
2022/09/25 15:52:18;;;;;;;12.80;11.70;;;17.10;99.90;;;;;;10498427;28;20216;-79
2022/09/25 15:57:27;;;;;;;11.57;10.50;;;17.00;99.90;;;;;;10500615;28;20223;-79
2022/09/25 16:08:16;;;;;;;11.87;10.87;;;16.80;99.90;;;;;;10496563;28;20193;-80
2022/09/25 16:13:24;;;;;;;12.83;11.83;;;16.80;99.90;;;;;;10498065;28;20208;-80
2022/09/25 16:18:35;;;;;;;10.13;9.33;;;16.70;99.90;;;;;;10496767;28;20240;-80
2022/09/25 16:23:38;;;;;;;10.00;9.30;;;16.70;99.90;;;;;;10497086;28;20209;-78
2022/09/25 16:28:52;;;;;;;8.70;8.10;;;16.70;99.90;;;;;;10494486;28;20630;-79
2022/09/25 16:33:56;;;;;;;6.60;6.20;;;16.80;99.90;;;;;;10496679;28;20182;-79
2022/09/25 16:39:21;;;;;;;5.50;5.10;;;16.70;99.90;;;;;;10496784;28;20252;-79
2022/09/25 16:44:55;;;;;;;5.07;4.77;;;16.60;99.90;;;;;;10495689;28;20290;-80
2022/09/25 16:49:58;;;;;;;4.70;4.50;;;16.50;99.90;;;;;;10495167;28;20220;-79
2022/09/25 16:55:07;;;;;;;5.40;5.10;;;16.50;99.90;;;;;;10496269;28;20224;-80
2022/09/25 17:00:15;;;;;;;6.20;5.80;;;16.50;99.90;;;;;;10479070;28;20216;-81
2022/09/25 17:05:22;;;;;;;7.17;6.77;;;16.40;99.90;;;;;;10493937;28;20644;-79
2022/09/25 17:10:27;;;;;;;7.30;6.80;;;16.40;99.90;;;;;;10485216;28;20282;-79
2022/09/25 17:15:33;;;;;;;7.23;6.73;;;16.40;99.90;;;;;;10459016;28;20312;-82
2022/09/25 17:20:36;;;;;;;6.77;6.37;;;16.40;99.90;;;;;;10494579;28;20224;-82
2022/09/25 17:25:42;;;;;;;6.17;5.83;;;16.40;99.90;;;;;;10496269;28;20212;-82
2022/09/25 17:30:45;;;;;;;5.60;5.20;;;16.40;99.90;;;;;;10498890;28;20696;-82
2022/09/25 17:35:52;;;;;;;7.10;6.60;;;16.30;99.90;;;;;;10498406;28;20232;-81
2022/09/25 17:40:56;;;;;;;8.37;7.67;;;16.30;99.90;;;;;;10496934;28;20209;-82
2022/09/25 17:45:59;;;;;;;8.00;7.47;;;16.20;99.90;;;;;;10499713;28;20202;-82
2022/09/25 17:51:10;;;;;;;9.40;8.70;;;16.20;99.90;;;;;;10481195;28;20962;-82
2022/09/25 17:56:12;;;;;;;11.63;10.50;;;16.20;99.90;;;;;;10501109;28;20223;-82
2022/09/25 18:01:20;;;;;;;10.80;9.90;;;16.20;99.90;;;;;;10504722;28;20748;-82
2022/09/25 18:06:25;;;;;;;10.33;9.53;;;16.10;99.90;;;;;;10503341;28;20197;-80
2022/09/25 18:11:27;;;;;;;10.20;9.30;;;16.10;99.90;;;;;;10501950;28;20239;-81
2022/09/25 18:16:31;;;;;;;12.30;11.40;;;16.10;99.90;;;;;;10499292;28;20279;-80
2022/09/25 18:26:56;;;;;;;11.57;10.60;;;16.00;99.90;;;;;;10498714;28;20193;-81
2022/09/25 18:31:58;;;;;;;11.40;10.43;;;16.00;99.90;;;;;;10498193;28;20213;-80
2022/09/25 18:37:02;;;;;;;12.77;11.67;;;16.00;99.90;;;;;;10497661;28;20323;-80
2022/09/25 18:42:04;;;;;;;12.47;11.27;;;15.90;99.90;;;;;;10499353;28;20224;-81
2022/09/25 18:47:08;;;;;;;13.03;11.97;;;15.90;99.90;;;;;;10503572;28;20296;-80
2022/09/25 18:52:12;;;;;;;14.90;13.60;;;15.90;99.90;;;;;;10498647;28;20311;-80
2022/09/25 18:57:14;;;;;;;14.50;13.20;;;15.80;99.90;;;;;;10499725;28;20232;-79
2022/09/25 19:02:20;;;;;;;15.53;14.13;;;15.80;99.90;;;;;;10502210;28;20220;-80
2022/09/25 19:07:28;;;;;;;16.70;15.20;;;15.80;99.90;;;;;;10500987;28;20169;-79
2022/09/25 19:12:30;;;;;;;16.07;14.70;;;15.80;99.90;;;;;;10501460;28;20219;-80
2022/09/25 19:17:35;;;;;;;15.43;14.17;;;15.70;99.90;;;;;;10500959;28;20208;-80
2022/09/25 19:22:39;;;;;;;17.37;15.77;;;15.70;99.90;;;;;;10501338;28;20212;-80
2022/09/25 19:27:42;;;;;;;16.13;14.83;;;15.70;99.90;;;;;;10499313;28;20189;-83
2022/09/25 19:32:44;;;;;;;17.33;15.63;;;15.60;99.90;;;;;;10503800;28;20189;-81
2022/09/25 19:37:47;;;;;;;17.80;16.20;;;15.60;99.90;;;;;;10502459;28;20569;-82
2022/09/25 19:42:49;;;;;;;19.13;17.30;;;15.70;99.90;;;;;;10501445;28;20189;-80
2022/09/25 19:47:51;;;;;;;17.30;15.80;;;15.70;99.90;;;;;;10500699;28;20246;-83
2022/09/25 19:53:00;;;;;;;16.90;15.33;;;15.70;99.90;;;;;;10498420;28;20220;-83
2022/09/25 19:58:09;;;;;;;17.07;14.90;;;15.70;99.90;;;;;;10497454;28;20251;-80
2022/09/25 20:03:15;;;;;;;15.27;13.77;;;15.70;99.90;;;;;;10498919;28;20185;-81
2022/09/25 20:08:18;;;;;;;15.70;14.30;;;15.60;99.90;;;;;;10501403;28;20212;-82
2022/09/25 20:13:21;;;;;;;14.87;13.60;;;15.50;99.90;;;;;;10462185;28;20617;-81
2022/09/25 20:18:23;;;;;;;15.47;14.07;;;15.50;99.90;;;;;;10498738;28;20221;-83
2022/09/25 20:23:26;;;;;;;15.50;14.10;;;15.50;99.90;;;;;;10508537;28;20722;-83
2022/09/25 20:28:29;;;;;;;15.23;13.60;;;15.50;99.90;;;;;;10506738;28;20213;-83
2022/09/25 20:33:31;;;;;;;15.30;13.90;;;15.40;99.90;;;;;;10505753;28;20571;-83
2022/09/25 20:38:35;;;;;;;15.00;13.60;;;15.40;99.90;;;;;;10506870;28;20567;-82
2022/09/25 20:43:38;;;;;;;13.50;12.10;;;15.30;99.90;;;;;;10505688;28;20215;-83
2022/09/25 20:48:43;;;;;;;14.33;13.10;;;15.30;99.90;;;;;;10505488;28;20729;-83
2022/09/25 20:53:51;;;;;;;16.33;13.30;;;15.20;99.90;;;;;;10504376;28;20318;-83
2022/09/25 20:58:54;;;;;;;13.20;12.00;;;15.20;99.90;;;;;;10503524;28;20655;-83
2022/09/25 21:04:08;;;;;;;14.17;12.60;;;15.20;99.90;;;;;;10505852;28;20196;-83
2022/09/25 21:09:19;;;;;;;13.10;12.00;;;15.20;99.90;;;;;;10504706;28;20216;-83
2022/09/25 21:14:24;;;;;;;13.17;11.97;;;15.20;99.90;;;;;;10506302;28;20271;-82
2022/09/25 21:19:29;;;;;;;15.13;12.10;;;15.20;99.90;;;;;;10508799;28;20227;-79
2022/09/25 21:24:33;;;;;;;13.43;12.10;;;15.20;99.90;;;;;;10500190;28;20180;-81
2022/09/25 21:29:36;;;;;;;12.40;11.30;;;15.20;99.90;;;;;;10499592;28;20656;-81
2022/09/25 21:34:38;;;;;;;11.03;10.03;;;15.20;99.90;;;;;;10498553;28;20303;-81
2022/09/25 21:39:45;;;;;;;11.80;10.80;;;15.20;99.90;;;;;;10483896;28;20252;-81
2022/09/25 21:44:49;;;;;;;11.23;10.13;;;15.20;99.90;;;;;;10505635;28;20271;-83
2022/09/25 21:49:55;;;;;;;10.30;9.40;;;15.10;99.90;;;;;;10503984;28;20600;-81
2022/09/25 21:54:58;;;;;;;11.67;10.53;;;15.10;99.90;;;;;;10498093;28;20676;-81
2022/09/25 22:00:01;;;;;;;9.47;8.67;;;15.10;99.90;;;;;;10499614;28;20700;-81
2022/09/25 22:05:03;;;;;;;11.33;10.27;;;15.10;99.90;;;;;;10500560;28;20192;-81
2022/09/25 22:10:08;;;;;;;10.90;9.90;;;15.10;99.90;;;;;;10511295;28;20204;-82
2022/09/25 22:15:11;;;;;;;11.40;10.30;;;15.10;99.90;;;;;;10502745;28;20193;-83
2022/09/25 22:20:13;;;;;;;11.70;10.70;;;15.00;99.90;;;;;;10505942;28;20208;-81
2022/09/25 22:25:17;;;;;;;11.07;10.20;;;14.90;99.90;;;;;;10510879;28;20185;-82
2022/09/25 22:30:19;;;;;;;11.57;10.37;;;14.80;99.90;;;;;;10510946;28;20205;-82
2022/09/25 22:35:21;;;;;;;11.37;10.37;;;14.70;99.90;;;;;;10511445;28;20188;-80
2022/09/25 22:40:24;;;;;;;10.97;10.17;;;14.60;99.90;;;;;;10511426;28;20752;-83
2022/09/25 22:45:26;;;;;;;11.90;11.00;;;14.60;99.90;;;;;;10511744;28;20275;-83
2022/09/25 22:50:29;;;;;;;11.10;10.20;;;14.60;99.90;;;;;;10512272;28;20216;-83
2022/09/25 22:55:32;;;;;;;12.10;11.20;;;14.60;99.90;;;;;;10509995;28;20212;-82
2022/09/25 23:00:34;;;;;;;11.87;10.87;;;14.60;99.90;;;;;;10504568;28;20582;-81
2022/09/25 23:05:36;;;;;;;12.10;10.47;;;14.60;99.90;;;;;;10502854;28;20195;-81
2022/09/25 23:10:40;;;;;;;10.53;9.63;;;14.60;99.90;;;;;;10503804;28;20696;-80
2022/09/25 23:15:42;;;;;;;10.67;9.77;;;14.70;99.90;;;;;;10501363;28;20208;-81
2022/09/25 23:20:44;;;;;;;9.87;9.00;;;14.70;99.90;;;;;;10503396;28;20273;-81
2022/09/25 23:25:48;;;;;;;8.93;8.23;;;14.70;99.90;;;;;;10502887;28;20203;-81
2022/09/25 23:30:49;;;;;;;10.30;9.37;;;14.60;99.90;;;;;;10501780;28;20220;-81
2022/09/25 23:35:52;;;;;;;10.10;9.30;;;14.60;99.90;;;;;;10504825;28;20209;-81
2022/09/25 23:40:55;;;;;;;10.10;9.20;;;14.60;99.90;;;;;;10510650;28;20224;-80
2022/09/25 23:45:57;;;;;;;10.53;9.53;;;14.60;99.90;;;;;;10515277;28;20227;-80
2022/09/25 23:50:59;;;;;;;10.20;9.10;;;14.60;99.90;;;;;;10504059;28;20303;-80
2022/09/25 23:56:07;;;;;;;9.40;8.60;;;14.60;99.90;;;;;;10503855;28;20213;-80
